Time;durP1;ratioP1;P1;durP2;ratioP2;P2;SDS_P1;SDS_P2;PMS_P1;PMS_P2;Temp;Humidity;BMP_temperature;BMP_pressure;BME280_temperature;BME280_humidity;BME280_pressure;Samples;Min_cycle;Max_cycle;Signal;HPM_P1;HPM_P2
2022/05/12 00:02:22;;;;;;;4.28;1.25;;;14.50;74.00;;;;;;5093924;28;20036;-30
2022/05/12 00:04:48;;;;;;;3.55;1.10;;;14.50;74.10;;;;;;5093810;28;20321;-29
2022/05/12 00:07:13;;;;;;;7.28;1.38;;;14.50;74.10;;;;;;5094156;28;20024;-29
2022/05/12 00:09:39;;;;;;;6.60;1.33;;;14.40;74.10;;;;;;5093797;28;20084;-29
2022/05/12 00:12:05;;;;;;;4.30;1.13;;;14.40;74.10;;;;;;5093824;28;20028;-31
2022/05/12 00:14:30;;;;;;;6.38;1.60;;;14.40;74.20;;;;;;5093814;28;20046;-32
2022/05/12 00:16:59;;;;;;;4.22;1.25;;;14.30;74.00;;;;;;5093545;28;20028;-29
2022/05/12 00:19:26;;;;;;;3.85;1.20;;;14.30;74.00;;;;;;5093529;28;20031;-30
2022/05/12 00:21:53;;;;;;;4.15;1.23;;;14.30;74.10;;;;;;5093514;28;20089;-32
2022/05/12 00:24:19;;;;;;;5.47;1.33;;;14.20;74.10;;;;;;5093626;28;20035;-33
2022/05/12 00:26:45;;;;;;;4.00;1.00;;;14.20;74.10;;;;;;5093464;28;20035;-31
2022/05/12 00:29:11;;;;;;;5.18;1.20;;;14.20;74.10;;;;;;5093457;28;20028;-29
2022/05/12 00:31:40;;;;;;;4.72;1.30;;;14.20;74.10;;;;;;5093621;28;20050;-30
2022/05/12 00:34:07;;;;;;;3.72;1.10;;;14.10;74.00;;;;;;5093169;28;20107;-29
2022/05/12 00:36:34;;;;;;;6.75;1.33;;;14.10;74.00;;;;;;5092864;28;20024;-32
2022/05/12 00:39:00;;;;;;;2.58;0.88;;;14.10;74.10;;;;;;5093426;28;20028;-31
2022/05/12 00:41:26;;;;;;;3.10;1.15;;;14.00;74.10;;;;;;5093377;28;20023;-34
2022/05/12 00:43:55;;;;;;;4.88;0.95;;;14.00;74.20;;;;;;5093295;28;20047;-30
2022/05/12 00:46:25;;;;;;;2.50;1.17;;;14.00;74.20;;;;;;5093410;28;20113;-29
2022/05/12 00:48:53;;;;;;;2.72;1.00;;;14.00;74.20;;;;;;5093139;28;20043;-29
2022/05/12 00:51:27;;;;;;;4.05;1.17;;;13.90;74.10;;;;;;5093490;28;20479;-34
2022/05/12 00:53:55;;;;;;;4.45;1.02;;;13.90;74.20;;;;;;5093125;28;20036;-32
2022/05/12 00:56:23;;;;;;;3.60;1.17;;;13.90;74.20;;;;;;5093149;28;20030;-29
2022/05/12 00:58:52;;;;;;;2.78;0.70;;;13.90;74.20;;;;;;5092957;28;20059;-30
2022/05/12 01:01:18;;;;;;;4.05;1.13;;;13.80;74.20;;;;;;5093077;28;20032;-31
2022/05/12 01:03:45;;;;;;;4.03;1.13;;;13.80;74.20;;;;;;5093081;28;20395;-28
2022/05/12 01:06:12;;;;;;;2.88;1.20;;;13.80;74.20;;;;;;5092985;28;20023;-33
2022/05/12 01:08:39;;;;;;;5.90;1.65;;;13.80;74.20;;;;;;5092970;28;20024;-34
2022/05/12 01:11:12;;;;;;;2.40;1.40;;;13.80;74.40;;;;;;5092758;28;20059;-33
2022/05/12 01:13:38;;;;;;;5.47;1.40;;;13.70;74.50;;;;;;5092568;28;20046;-32
2022/05/12 01:16:05;;;;;;;5.45;1.30;;;13.60;74.60;;;;;;5092796;28;20020;-33
2022/05/12 01:18:35;;;;;;;5.78;1.25;;;13.60;74.70;;;;;;5092834;28;20479;-29
2022/05/12 01:21:01;;;;;;;5.18;1.30;;;13.60;74.80;;;;;;5092754;28;20028;-29
2022/05/12 01:23:32;;;;;;;4.90;1.25;;;13.50;74.80;;;;;;5092997;28;20043;-29
2022/05/12 01:26:08;;;;;;;3.47;1.10;;;13.50;74.90;;;;;;5092977;28;20463;-30
2022/05/12 01:28:34;;;;;;;7.03;1.45;;;13.50;74.90;;;;;;5092528;28;20059;-28
2022/05/12 01:31:01;;;;;;;3.80;1.00;;;13.50;74.80;;;;;;5092488;28;20036;-28
2022/05/12 01:33:27;;;;;;;6.75;1.23;;;13.50;74.90;;;;;;5092463;28;20032;-30
2022/05/12 01:35:53;;;;;;;4.15;1.10;;;13.50;74.90;;;;;;5092573;28;20028;-35
2022/05/12 01:38:19;;;;;;;5.95;1.20;;;13.50;74.90;;;;;;5092415;28;20105;-34
2022/05/12 01:40:45;;;;;;;3.78;1.13;;;13.50;74.90;;;;;;5092411;28;20025;-29
2022/05/12 01:43:13;;;;;;;3.92;1.23;;;13.50;75.10;;;;;;5092468;28;20039;-31
2022/05/12 01:45:38;;;;;;;3.72;1.05;;;13.40;75.10;;;;;;5092497;28;20055;-31
2022/05/12 01:48:05;;;;;;;6.40;1.20;;;13.40;75.20;;;;;;5093662;28;20093;-29
2022/05/12 01:50:31;;;;;;;4.82;1.27;;;13.30;75.80;;;;;;5096481;28;20023;-36
2022/05/12 01:52:56;;;;;;;3.72;1.30;;;13.30;75.20;;;;;;5096247;28;20028;-29
2022/05/12 01:55:26;;;;;;;3.45;1.05;;;13.30;75.30;;;;;;5096418;28;20066;-29
2022/05/12 01:57:52;;;;;;;5.13;1.20;;;13.30;75.30;;;;;;5096091;28;20040;-30
2022/05/12 02:00:21;;;;;;;4.88;1.38;;;13.30;75.30;;;;;;5096460;28;20024;-28
2022/05/12 02:02:47;;;;;;;3.95;1.23;;;13.30;75.30;;;;;;5096139;28;20393;-29
2022/05/12 02:05:13;;;;;;;4.97;1.70;;;13.30;75.30;;;;;;5096349;28;20032;-30
2022/05/12 02:07:40;;;;;;;3.53;1.27;;;13.20;75.30;;;;;;5094784;28;20059;-31
2022/05/12 02:10:08;;;;;;;4.40;1.20;;;13.20;75.40;;;;;;5095977;28;20098;-28
2022/05/12 02:12:34;;;;;;;3.80;1.38;;;13.20;75.40;;;;;;5095843;28;20032;-29
2022/05/12 02:15:00;;;;;;;4.80;1.23;;;13.20;75.30;;;;;;5096171;28;20111;-37
2022/05/12 02:17:25;;;;;;;6.13;1.60;;;13.20;75.30;;;;;;5096015;28;20028;-36
2022/05/12 02:19:51;;;;;;;5.80;1.30;;;13.20;75.40;;;;;;5095953;28;20024;-30
2022/05/12 02:22:18;;;;;;;7.65;1.30;;;13.20;75.50;;;;;;5096113;28;20107;-29
2022/05/12 02:24:44;;;;;;;5.05;1.80;;;13.20;75.50;;;;;;5095832;28;20031;-29
2022/05/12 02:27:09;;;;;;;3.00;1.50;;;13.20;75.50;;;;;;5096020;28;20024;-30
2022/05/12 02:29:35;;;;;;;2.85;1.25;;;13.20;75.50;;;;;;5095828;28;20077;-30
2022/05/12 02:32:01;;;;;;;5.10;1.70;;;13.20;75.50;;;;;;5095337;28;20028;-28
2022/05/12 02:34:26;;;;;;;8.07;1.40;;;13.20;75.60;;;;;;5095498;28;20027;-31
2022/05/12 02:37:01;;;;;;;4.13;1.30;;;13.20;75.70;;;;;;5095495;28;20149;-29
2022/05/12 02:39:32;;;;;;;3.65;1.30;;;13.20;75.70;;;;;;5095455;28;20028;-29
2022/05/12 02:41:59;;;;;;;4.18;1.48;;;13.20;75.70;;;;;;5095204;28;20020;-28
2022/05/12 02:44:25;;;;;;;3.88;1.42;;;13.20;75.60;;;;;;5095184;28;20024;-29
2022/05/12 02:46:50;;;;;;;3.33;1.27;;;13.20;75.60;;;;;;5095096;28;20093;-30
2022/05/12 02:49:16;;;;;;;6.05;1.60;;;13.30;75.70;;;;;;5093849;28;20059;-28
2022/05/12 02:51:43;;;;;;;4.70;1.30;;;13.20;75.60;;;;;;5095220;28;20048;-30
2022/05/12 02:54:11;;;;;;;3.88;1.63;;;13.20;75.70;;;;;;5095068;28;20032;-29
2022/05/12 02:56:38;;;;;;;4.35;1.52;;;13.30;75.70;;;;;;5095297;28;20016;-32
2022/05/12 02:59:04;;;;;;;5.50;1.80;;;13.30;75.70;;;;;;5094814;28;20333;-29
2022/05/12 03:01:30;;;;;;;5.25;1.60;;;13.30;75.80;;;;;;5094087;28;20039;-35
2022/05/12 03:03:56;;;;;;;4.18;1.90;;;13.30;75.90;;;;;;5095016;28;20475;-31
2022/05/12 03:06:21;;;;;;;7.57;2.13;;;13.20;75.80;;;;;;5095241;28;20052;-29
2022/05/12 03:08:47;;;;;;;5.97;2.30;;;13.20;75.90;;;;;;5094841;28;20039;-29
2022/05/12 03:11:12;;;;;;;6.90;2.10;;;13.20;75.90;;;;;;5094875;28;20064;-30
2022/05/12 03:13:38;;;;;;;3.92;2.10;;;13.20;76.00;;;;;;5094717;28;20119;-29
2022/05/12 03:16:03;;;;;;;7.80;2.20;;;13.20;76.10;;;;;;5094785;28;20016;-33
2022/05/12 03:18:29;;;;;;;8.00;2.75;;;13.10;76.30;;;;;;5094703;28;20024;-29
2022/05/12 03:20:55;;;;;;;7.18;2.50;;;13.10;76.50;;;;;;5094517;28;20077;-28
2022/05/12 03:23:22;;;;;;;7.30;2.53;;;13.10;76.70;;;;;;5094600;28;20023;-30
2022/05/12 03:25:49;;;;;;;7.60;2.92;;;13.00;76.80;;;;;;5094568;28;20032;-31
2022/05/12 03:28:14;;;;;;;5.28;3.00;;;13.00;77.00;;;;;;5094929;28;20418;-30
2022/05/12 03:30:43;;;;;;;5.47;2.55;;;12.90;77.00;;;;;;5094611;28;20020;-29
2022/05/12 03:33:10;;;;;;;4.57;2.78;;;12.90;77.10;;;;;;5094384;28;20039;-36
2022/05/12 03:35:36;;;;;;;8.02;3.13;;;12.90;77.20;;;;;;5093259;28;20345;-29
2022/05/12 03:38:03;;;;;;;5.28;2.50;;;12.90;77.30;;;;;;5094455;28;20049;-30
2022/05/12 03:40:30;;;;;;;5.55;2.80;;;12.90;77.40;;;;;;5092947;28;20123;-35
2022/05/12 03:42:58;;;;;;;7.40;3.10;;;12.90;77.40;;;;;;5093649;28;20539;-29
2022/05/12 03:45:28;;;;;;;7.80;2.60;;;12.80;77.50;;;;;;5094529;28;20024;-29
2022/05/12 03:47:55;;;;;;;4.72;2.53;;;12.90;77.60;;;;;;5094183;28;20032;-30
2022/05/12 03:50:24;;;;;;;5.95;3.22;;;12.90;77.60;;;;;;5094387;28;20434;-31
2022/05/12 03:52:52;;;;;;;4.90;2.38;;;12.90;77.60;;;;;;5093994;28;20060;-32
2022/05/12 03:55:22;;;;;;;6.82;2.95;;;12.90;77.60;;;;;;5094284;28;20028;-29
2022/05/12 03:57:55;;;;;;;4.20;2.67;;;12.90;77.70;;;;;;5093630;28;20047;-29
2022/05/12 04:00:25;;;;;;;6.65;2.92;;;12.90;77.80;;;;;;5094033;28;20371;-28
2022/05/12 04:02:52;;;;;;;7.03;3.38;;;12.90;77.90;;;;;;5093812;28;20028;-29
2022/05/12 04:05:20;;;;;;;3.47;2.83;;;12.80;78.00;;;;;;5093952;28;20056;-29
2022/05/12 04:07:46;;;;;;;5.88;2.80;;;12.80;78.10;;;;;;5093712;28;20036;-28
2022/05/12 04:10:13;;;;;;;6.90;3.08;;;12.80;78.10;;;;;;5093848;28;20020;-29
2022/05/12 04:12:39;;;;;;;5.95;2.70;;;12.80;78.20;;;;;;5093030;28;20016;-31
2022/05/12 04:15:06;;;;;;;5.68;2.80;;;12.70;78.30;;;;;;5093827;28;20082;-28
2022/05/12 04:17:31;;;;;;;6.05;3.00;;;12.80;78.30;;;;;;5092928;28;20028;-30
2022/05/12 04:20:02;;;;;;;5.85;2.70;;;12.80;78.40;;;;;;5093735;28;20027;-29
2022/05/12 04:22:28;;;;;;;5.60;2.90;;;12.80;78.50;;;;;;5093810;28;20107;-28
2022/05/12 04:24:54;;;;;;;4.93;2.85;;;12.80;78.40;;;;;;5093743;28;20059;-30
2022/05/12 04:27:21;;;;;;;6.28;2.72;;;12.80;78.50;;;;;;5093262;28;20035;-35
2022/05/12 04:29:46;;;;;;;6.07;2.90;;;12.80;78.50;;;;;;5091812;28;20024;-36
2022/05/12 04:32:12;;;;;;;5.55;2.55;;;12.80;78.50;;;;;;5093488;28;20434;-29
2022/05/12 04:37:30;;;;;;;5.85;2.75;;;12.80;79.10;;;;;;5093246;28;20039;-31
2022/05/12 04:40:06;;;;;;;5.95;3.28;;;12.80;78.60;;;;;;5093210;28;20077;-29
2022/05/12 04:42:32;;;;;;;5.95;3.00;;;12.80;78.70;;;;;;5092869;28;20028;-29
2022/05/12 04:44:58;;;;;;;5.15;2.72;;;12.80;78.70;;;;;;5093169;28;20070;-35
2022/05/12 04:47:23;;;;;;;7.07;2.95;;;12.80;78.70;;;;;;5093249;28;20051;-33
2022/05/12 04:49:50;;;;;;;4.20;2.60;;;12.80;78.60;;;;;;5092976;28;20032;-30
2022/05/12 04:52:16;;;;;;;3.47;2.40;;;12.80;78.60;;;;;;5092995;28;20028;-35
2022/05/12 04:54:42;;;;;;;3.90;2.40;;;12.90;78.60;;;;;;5093006;28;20024;-29
2022/05/12 04:57:08;;;;;;;3.65;2.50;;;12.90;78.50;;;;;;5092813;28;20425;-28
2022/05/12 04:59:34;;;;;;;4.65;2.30;;;12.90;78.50;;;;;;5093128;28;20047;-31
2022/05/12 05:02:00;;;;;;;3.92;2.40;;;12.90;78.50;;;;;;5092728;28;20399;-30
2022/05/12 05:04:26;;;;;;;5.18;2.40;;;13.00;78.60;;;;;;5092652;28;20020;-33
2022/05/12 05:06:52;;;;;;;4.22;2.25;;;13.00;78.50;;;;;;5092647;28;20069;-29
2022/05/12 05:09:18;;;;;;;6.28;3.00;;;13.00;78.50;;;;;;5092486;28;20077;-30
2022/05/12 05:11:43;;;;;;;4.18;2.50;;;13.00;78.40;;;;;;5092578;28;20016;-28
2022/05/12 05:14:09;;;;;;;4.60;2.42;;;13.00;78.40;;;;;;5092690;28;20039;-30
2022/05/12 05:16:35;;;;;;;5.05;2.67;;;13.00;78.50;;;;;;5092664;28;20020;-31
2022/05/12 05:19:01;;;;;;;4.20;2.30;;;13.00;78.50;;;;;;5092434;28;20021;-31
2022/05/12 05:21:26;;;;;;;4.07;2.40;;;13.00;78.50;;;;;;5092691;28;20032;-33
2022/05/12 05:23:52;;;;;;;4.40;2.30;;;13.10;78.60;;;;;;5094732;28;20467;-34
2022/05/12 05:26:18;;;;;;;5.03;2.05;;;13.10;78.60;;;;;;5095836;28;20023;-32
2022/05/12 05:28:43;;;;;;;5.20;2.50;;;13.10;78.60;;;;;;5096808;28;20035;-30
2022/05/12 05:31:09;;;;;;;5.90;2.67;;;13.10;78.50;;;;;;5096938;28;20111;-29
2022/05/12 05:33:35;;;;;;;5.45;2.60;;;13.20;78.50;;;;;;5096552;28;20031;-28
2022/05/12 05:36:01;;;;;;;3.58;2.38;;;13.20;78.40;;;;;;5096530;28;20581;-29
2022/05/12 05:38:26;;;;;;;5.25;2.30;;;13.20;78.20;;;;;;5096762;28;20360;-29
2022/05/12 05:40:52;;;;;;;4.68;2.67;;;13.30;78.30;;;;;;5096485;28;20025;-30
2022/05/12 05:43:19;;;;;;;5.85;2.75;;;13.30;78.20;;;;;;5095050;28;20126;-29
2022/05/12 05:45:45;;;;;;;7.45;2.90;;;13.40;78.20;;;;;;5096534;28;20077;-29
2022/05/12 05:48:11;;;;;;;6.43;2.60;;;13.40;78.20;;;;;;5096801;28;20107;-30
2022/05/12 05:53:23;;;;;;;5.28;2.80;;;13.40;78.20;;;;;;5096506;28;20023;-32
2022/05/12 05:53:30;;;;;;;5.32;2.75;;;13.40;78.10;;;;;;5096231;28;20043;-30
2022/05/12 05:55:58;;;;;;;7.03;2.63;;;13.50;78.10;;;;;;5096466;28;20031;-30
2022/05/12 05:58:25;;;;;;;6.60;2.70;;;13.50;78.00;;;;;;5096360;28;20097;-29
2022/05/12 06:00:51;;;;;;;4.50;2.67;;;13.50;78.00;;;;;;5096401;28;20026;-30
2022/05/12 06:03:17;;;;;;;5.30;3.00;;;13.60;78.00;;;;;;5096518;28;20023;-31
2022/05/12 06:05:43;;;;;;;10.75;7.90;;;13.60;78.00;;;;;;5096429;28;20028;-35
2022/05/12 06:08:11;;;;;;;8.10;3.80;;;13.70;77.90;;;;;;5096206;28;20020;-30
2022/05/12 06:10:38;;;;;;;7.53;3.15;;;13.70;78.00;;;;;;5095906;28;20028;-29
2022/05/12 06:13:04;;;;;;;5.80;3.20;;;13.70;77.90;;;;;;5096132;28;20099;-36
2022/05/12 06:15:30;;;;;;;6.90;2.70;;;13.70;77.90;;;;;;5095870;28;20048;-29
2022/05/12 06:17:55;;;;;;;4.75;3.00;;;13.80;78.10;;;;;;5095549;28;20471;-30
2022/05/12 06:20:22;;;;;;;4.53;2.95;;;13.80;77.80;;;;;;5095605;28;20472;-33
2022/05/12 06:22:49;;;;;;;7.70;3.10;;;13.80;77.70;;;;;;5095496;28;20027;-31
2022/05/12 06:25:16;;;;;;;6.30;3.30;;;13.90;77.60;;;;;;5094400;28;20081;-29
2022/05/12 06:27:43;;;;;;;5.25;2.83;;;13.90;77.60;;;;;;5095249;28;20024;-32
2022/05/12 06:30:11;;;;;;;3.85;3.15;;;13.90;77.50;;;;;;5095478;28;20123;-30
2022/05/12 06:32:41;;;;;;;7.80;2.85;;;14.00;77.50;;;;;;5095479;28;20028;-32
2022/05/12 06:35:08;;;;;;;6.18;3.33;;;14.10;77.50;;;;;;5094501;28;20031;-30
2022/05/12 06:37:34;;;;;;;7.20;3.92;;;14.10;78.20;;;;;;5095272;28;20042;-29
2022/05/12 06:40:00;;;;;;;8.65;3.67;;;14.10;77.50;;;;;;5095347;28;20379;-29
2022/05/12 06:42:26;;;;;;;8.05;3.60;;;14.10;77.50;;;;;;5095442;28;20020;-30
2022/05/12 06:44:54;;;;;;;8.02;3.78;;;14.10;77.40;;;;;;5095475;28;20115;-31
2022/05/12 06:47:19;;;;;;;6.28;3.35;;;14.20;77.30;;;;;;5095286;28;20442;-36
2022/05/12 06:49:49;;;;;;;6.63;3.63;;;14.20;77.30;;;;;;5095300;28;20020;-29
2022/05/12 06:52:15;;;;;;;7.15;3.58;;;14.30;77.20;;;;;;5095548;28;20480;-30
2022/05/12 06:54:41;;;;;;;7.15;3.40;;;14.30;77.10;;;;;;5095198;28;20052;-31
2022/05/12 06:57:06;;;;;;;7.97;3.45;;;14.30;76.90;;;;;;5095136;28;20471;-35
2022/05/12 06:59:36;;;;;;;10.73;3.88;;;14.40;76.90;;;;;;5094989;28;20024;-31
2022/05/12 07:02:02;;;;;;;5.45;3.28;;;14.40;76.70;;;;;;5094872;28;20027;-30
2022/05/12 07:04:29;;;;;;;7.03;3.95;;;14.50;76.60;;;;;;5094948;28;20107;-32
2022/05/12 07:06:55;;;;;;;7.10;3.28;;;14.50;76.50;;;;;;5095267;28;20419;-32
2022/05/12 07:09:21;;;;;;;7.60;3.70;;;14.50;76.50;;;;;;5095079;28;20055;-30
2022/05/12 07:11:46;;;;;;;7.47;3.45;;;14.60;76.40;;;;;;5094681;28;20024;-32
2022/05/12 07:14:14;;;;;;;8.85;3.67;;;14.60;76.90;;;;;;5094658;28;20016;-30
2022/05/12 07:16:41;;;;;;;7.85;3.50;;;14.60;76.20;;;;;;5095125;28;20107;-29
2022/05/12 07:19:07;;;;;;;6.95;3.30;;;14.70;76.10;;;;;;5095031;28;20012;-30
2022/05/12 07:27:00;;;;;;;7.43;3.65;;;14.90;75.60;;;;;;5094303;28;20585;-31
2022/05/12 07:29:28;;;;;;;8.82;3.67;;;15.00;75.50;;;;;;5094356;28;20073;-28
2022/05/12 07:31:54;;;;;;;7.85;3.17;;;15.10;75.40;;;;;;5094489;28;20020;-29
2022/05/12 07:34:20;;;;;;;5.38;2.90;;;15.10;75.10;;;;;;5094300;28;20073;-29
2022/05/12 07:36:50;;;;;;;8.25;3.20;;;15.10;74.80;;;;;;5094344;28;20016;-30
2022/05/12 07:39:17;;;;;;;9.80;2.88;;;15.10;74.50;;;;;;5094246;28;20025;-31
2022/05/12 07:41:43;;;;;;;9.52;3.47;;;15.20;74.30;;;;;;5094177;28;20016;-36
2022/05/12 07:44:10;;;;;;;7.97;2.90;;;15.20;73.80;;;;;;5094409;28;20030;-29
2022/05/12 07:46:37;;;;;;;6.50;3.30;;;15.20;73.50;;;;;;5094100;28;20024;-33
2022/05/12 07:49:02;;;;;;;6.30;3.05;;;15.30;73.50;;;;;;5094291;28;20085;-32
2022/05/12 07:51:29;;;;;;;6.78;2.90;;;15.30;73.30;;;;;;5094107;28;20395;-33
2022/05/12 07:53:55;;;;;;;7.85;2.90;;;15.40;73.10;;;;;;5093886;28;20028;-34
2022/05/12 07:56:23;;;;;;;8.73;3.13;;;15.50;72.20;;;;;;5093812;28;20024;-29
2022/05/12 07:58:50;;;;;;;6.22;2.75;;;15.50;71.40;;;;;;5093910;28;20032;-29
2022/05/12 08:01:17;;;;;;;6.00;2.63;;;15.60;71.20;;;;;;5093986;28;20181;-30
2022/05/12 08:03:44;;;;;;;9.52;3.13;;;15.60;70.90;;;;;;5093921;28;20031;-29
2022/05/12 08:06:10;;;;;;;3.83;2.40;;;15.70;70.60;;;;;;5094233;28;20573;-32
2022/05/12 08:08:36;;;;;;;9.60;2.97;;;15.80;70.50;;;;;;5092601;28;20494;-29
2022/05/12 08:11:03;;;;;;;5.20;2.70;;;15.90;70.00;;;;;;5092231;28;20024;-29
2022/05/12 08:13:29;;;;;;;6.38;2.95;;;15.90;69.70;;;;;;5093146;28;20016;-29
2022/05/12 08:15:55;;;;;;;7.70;2.65;;;16.00;69.50;;;;;;5093305;28;20012;-28
2022/05/12 08:18:24;;;;;;;6.78;3.05;;;16.00;69.50;;;;;;5093260;28;20089;-36
2022/05/12 08:20:50;;;;;;;4.80;2.60;;;16.10;69.10;;;;;;5092941;28;20016;-29
2022/05/12 08:23:17;;;;;;;3.72;2.05;;;16.20;68.90;;;;;;5093043;28;20028;-35
2022/05/12 08:25:43;;;;;;;7.80;2.72;;;16.20;68.50;;;;;;5092863;28;20022;-33
2022/05/12 08:28:11;;;;;;;6.55;2.75;;;16.30;68.20;;;;;;5092846;28;20472;-30
2022/05/12 08:30:37;;;;;;;4.72;2.20;;;16.30;67.70;;;;;;5091876;28;20110;-31
2022/05/12 08:33:03;;;;;;;3.60;1.95;;;16.40;67.50;;;;;;5092942;28;20028;-31
2022/05/12 08:35:28;;;;;;;4.28;2.17;;;16.50;67.40;;;;;;5093155;28;20020;-29
2022/05/12 08:37:54;;;;;;;6.07;2.22;;;16.50;66.90;;;;;;5092999;28;20468;-29
2022/05/12 08:40:38;;;;;;;5.05;2.10;;;16.50;66.80;;;;;;5092985;28;20107;-31
2022/05/12 08:43:17;;;;;;;;;;;16.60;65.90;;;;;;5093382;28;20050;-29
2022/05/12 08:45:44;;;;;;;4.93;2.10;;;16.60;65.70;;;;;;5092803;28;19912;-30
2022/05/12 08:48:13;;;;;;;4.53;2.20;;;16.70;65.30;;;;;;5092767;28;20024;-30
2022/05/12 08:50:40;;;;;;;6.28;2.20;;;16.80;65.10;;;;;;5092786;28;20028;-30
2022/05/12 08:53:13;;;;;;;3.40;2.10;;;16.80;63.60;;;;;;5092679;28;20099;-31
2022/05/12 08:55:52;;;;;;;6.30;2.45;;;16.80;63.00;;;;;;5093067;28;20366;-35
2022/05/12 08:58:23;;;;;;;3.63;1.88;;;16.80;62.80;;;;;;5092237;28;20135;-34
2022/05/12 09:01:09;;;;;;;4.10;2.05;;;16.90;63.80;;;;;;5093125;28;20016;-30
2022/05/12 09:03:41;;;;;;;5.13;1.80;;;16.90;62.70;;;;;;5092967;28;20103;-30
2022/05/12 09:06:18;;;;;;;3.85;1.70;;;17.00;62.80;;;;;;5091484;28;20038;-35
2022/05/12 09:09:05;;;;;;;4.45;2.03;;;17.10;62.50;;;;;;5092833;28;20078;-33
2022/05/12 09:11:59;;;;;;;6.85;1.92;;;17.20;61.60;;;;;;5092700;28;20020;-31
2022/05/12 09:14:42;;;;;;;4.25;1.90;;;17.30;61.30;;;;;;5092894;28;20077;-30
2022/05/12 09:17:17;;;;;;;4.28;1.73;;;17.30;61.00;;;;;;5092928;28;20489;-35
2022/05/12 09:19:42;;;;;;;6.45;2.00;;;17.40;60.80;;;;;;5092666;28;20020;-36
2022/05/12 09:22:10;;;;;;;5.05;1.95;;;17.50;60.00;;;;;;5092646;28;20483;-31
2022/05/12 09:24:37;;;;;;;3.55;1.80;;;17.50;59.60;;;;;;5093008;28;20043;-33
2022/05/12 09:27:09;;;;;;;5.43;1.95;;;17.50;59.80;;;;;;5092528;28;20027;-33
2022/05/12 09:29:49;;;;;;;3.88;1.80;;;17.40;59.00;;;;;;5092455;28;20035;-32
2022/05/12 09:32:23;;;;;;;4.20;1.92;;;17.40;58.70;;;;;;5092454;28;20056;-33
2022/05/12 09:35:30;;;;;;;7.93;2.15;;;17.50;58.70;;;;;;5092719;28;20507;-35
2022/05/12 09:37:56;;;;;;;5.38;1.70;;;17.50;57.80;;;;;;5089447;28;20036;-30
2022/05/12 09:40:31;;;;;;;2.15;1.60;;;17.60;57.50;;;;;;5093010;28;20383;-32
2022/05/12 09:43:00;;;;;;;5.35;1.65;;;17.60;57.50;;;;;;5092694;28;20076;-34
2022/05/12 09:45:36;;;;;;;3.80;1.48;;;17.70;56.40;;;;;;5092903;28;20028;-36
2022/05/12 09:48:23;;;;;;;5.28;1.40;;;17.80;56.30;;;;;;5092846;28;20020;-33
2022/05/12 09:50:50;;;;;;;4.10;1.55;;;17.90;56.20;;;;;;5092561;28;20024;-35
2022/05/12 09:53:31;;;;;;;2.13;1.30;;;18.00;56.00;;;;;;5092710;28;20023;-32
2022/05/12 09:56:02;;;;;;;3.33;1.70;;;18.10;55.40;;;;;;5092710;28;20059;-32
2022/05/12 09:58:43;;;;;;;2.22;1.40;;;18.10;54.60;;;;;;5092281;28;20099;-32
2022/05/12 10:01:17;;;;;;;4.28;1.60;;;18.10;53.80;;;;;;5092352;28;20024;-32
2022/05/12 10:09:30;;;;;;;4.20;1.40;;;18.30;54.10;;;;;;5092406;28;20055;-30
2022/05/12 10:12:10;;;;;;;2.05;1.10;;;18.30;54.00;;;;;;5095574;28;20146;-30
2022/05/12 10:14:42;;;;;;;2.60;1.10;;;18.20;53.70;;;;;;5095974;28;20031;-35
2022/05/12 10:17:33;;;;;;;2.92;1.27;;;18.20;53.60;;;;;;5095959;28;20475;-30
2022/05/12 10:20:09;;;;;;;2.70;1.30;;;18.40;53.00;;;;;;5095827;28;20023;-32
2022/05/12 10:22:57;;;;;;;3.65;1.08;;;18.60;52.80;;;;;;5095305;28;20034;-33
2022/05/12 10:25:47;;;;;;;2.92;0.93;;;18.70;52.50;;;;;;5095442;28;20107;-30
2022/05/12 10:28:26;;;;;;;2.85;0.77;;;18.90;52.50;;;;;;5094176;28;20431;-32
2022/05/12 10:31:03;;;;;;;1.85;0.88;;;19.00;51.90;;;;;;5095447;28;20070;-32
2022/05/12 10:33:44;;;;;;;4.78;1.20;;;19.20;51.10;;;;;;5095718;28;20031;-31
2022/05/12 10:36:22;;;;;;;2.25;1.10;;;19.20;50.20;;;;;;5095771;28;20100;-30
2022/05/12 10:39:20;;;;;;;1.95;1.10;;;19.30;49.90;;;;;;5095665;28;20086;-31
2022/05/12 10:41:57;;;;;;;2.55;0.88;;;19.20;49.30;;;;;;5095218;28;20051;-32
2022/05/12 10:44:57;;;;;;;3.25;0.90;;;19.30;49.60;;;;;;5095473;28;20052;-29
2022/05/12 10:47:45;;;;;;;2.22;1.00;;;19.30;49.50;;;;;;5093800;28;20391;-28
2022/05/12 10:50:33;;;;;;;3.45;1.20;;;19.40;49.20;;;;;;5095178;28;20070;-30
2022/05/12 10:53:14;;;;;;;1.88;0.90;;;19.40;48.90;;;;;;5094913;28;20371;-30
2022/05/12 10:55:54;;;;;;;1.85;1.20;;;19.50;49.00;;;;;;5095254;28;20024;-29
2022/05/12 10:58:53;;;;;;;1.92;1.10;;;19.50;48.30;;;;;;5095211;28;20040;-33
2022/05/12 11:01:19;;;;;;;3.92;1.20;;;19.50;47.90;;;;;;5094990;28;20020;-31
2022/05/12 11:04:13;;;;;;;2.65;1.02;;;19.50;48.40;;;;;;5095061;28;20047;-33
2022/05/12 11:07:00;;;;;;;3.30;1.48;;;19.40;48.20;;;;;;5095060;28;20024;-32
2022/05/12 11:09:39;;;;;;;3.30;1.73;;;19.40;48.50;;;;;;5094940;28;20016;-29
2022/05/12 11:12:52;;;;;;;3.47;1.08;;;19.50;49.20;;;;;;5094800;28;20058;-32
2022/05/12 11:15:23;;;;;;;1.70;0.73;;;19.60;48.50;;;;;;5012709;28;20045;-33
2022/05/12 11:17:59;;;;;;;1.48;0.85;;;19.70;48.50;;;;;;5080818;28;20043;-32
2022/05/12 11:20:32;;;;;;;2.65;1.30;;;19.70;47.80;;;;;;5094739;28;20027;-32
2022/05/12 11:23:13;;;;;;;2.67;1.00;;;19.70;47.70;;;;;;5093217;28;20470;-35
2022/05/12 11:25:52;;;;;;;3.15;1.30;;;19.60;47.70;;;;;;5094564;28;20028;-32
2022/05/12 11:31:53;;;;;;;2.53;1.00;;;19.50;48.30;;;;;;5094517;28;20039;-32
2022/05/12 11:34:23;;;;;;;3.17;0.98;;;19.50;48.20;;;;;;5093966;28;20108;-33
2022/05/12 11:36:52;;;;;;;2.63;1.10;;;19.60;48.20;;;;;;5093969;28;20019;-30
2022/05/12 11:39:31;;;;;;;2.50;0.95;;;19.60;47.50;;;;;;5094247;28;20080;-29
2022/05/12 11:42:14;;;;;;;3.28;0.85;;;19.70;47.50;;;;;;5094217;28;20096;-31
2022/05/12 11:45:01;;;;;;;2.00;1.13;;;19.70;47.10;;;;;;5094027;28;20111;-29
2022/05/12 11:48:03;;;;;;;2.35;0.90;;;19.80;46.80;;;;;;5094336;28;20016;-29
2022/05/12 11:50:39;;;;;;;1.67;0.90;;;19.80;46.70;;;;;;5094196;28;20021;-30
2022/05/12 11:53:21;;;;;;;2.40;1.00;;;19.80;46.20;;;;;;5093940;28;20028;-35
2022/05/12 11:56:01;;;;;;;2.83;1.10;;;19.70;46.20;;;;;;5093597;28;20082;-29
2022/05/12 11:58:41;;;;;;;2.22;0.80;;;19.70;46.10;;;;;;5093695;28;20036;-30
2022/05/12 12:01:11;;;;;;;2.65;1.10;;;19.80;46.20;;;;;;5093638;28;20021;-38
2022/05/12 12:03:56;;;;;;;3.08;1.00;;;19.80;46.00;;;;;;5093573;28;20031;-30
2022/05/12 12:06:42;;;;;;;2.90;0.90;;;19.90;45.80;;;;;;5093678;28;20028;-31
2022/05/12 12:09:25;;;;;;;2.17;1.10;;;20.00;45.40;;;;;;5093644;28;20020;-30
2022/05/12 12:11:52;;;;;;;1.40;1.00;;;20.10;44.40;;;;;;5093834;28;20149;-31
2022/05/12 12:14:43;;;;;;;2.05;0.85;;;20.20;45.00;;;;;;5093924;28;20016;-30
2022/05/12 12:17:27;;;;;;;2.53;0.90;;;20.40;44.30;;;;;;5093809;28;20024;-30
2022/05/12 12:19:56;;;;;;;2.65;0.88;;;20.40;44.20;;;;;;5093733;28;20016;-31
2022/05/12 12:22:40;;;;;;;2.38;0.90;;;20.50;44.20;;;;;;5093883;28;20028;-34
2022/05/12 12:25:09;;;;;;;2.78;0.90;;;20.60;43.70;;;;;;5092486;28;20134;-30
2022/05/12 12:27:58;;;;;;;1.55;0.93;;;20.70;42.70;;;;;;5093473;28;20028;-33
2022/05/12 12:30:31;;;;;;;3.20;0.90;;;20.60;42.90;;;;;;5093261;28;20099;-31
2022/05/12 12:33:16;;;;;;;;;;;20.60;42.80;;;;;;5092695;28;20024;-31
2022/05/12 12:35:50;;;;;;;3.13;1.20;;;20.60;42.50;;;;;;5093100;28;19911;-31
2022/05/12 12:38:43;;;;;;;3.83;1.13;;;20.60;41.80;;;;;;5093269;28;20028;-30
2022/05/12 12:41:15;;;;;;;2.90;0.90;;;20.70;42.10;;;;;;5093295;28;20024;-32
2022/05/12 12:43:46;;;;;;;2.15;1.00;;;20.70;42.00;;;;;;5091848;28;20066;-32
2022/05/12 12:46:47;;;;;;;3.00;1.15;;;20.70;41.70;;;;;;5093078;28;20073;-30
2022/05/12 12:49:33;;;;;;;2.50;1.00;;;20.70;41.70;;;;;;5078550;28;20036;-30
2022/05/12 12:52:08;;;;;;;1.40;0.90;;;20.80;41.90;;;;;;5092745;28;20121;-30
2022/05/12 12:57:44;;;;;;;2.88;0.82;;;20.90;41.90;;;;;;5093037;28;20050;-31
2022/05/12 13:00:23;;;;;;;2.63;0.90;;;21.10;42.00;;;;;;5082145;28;20149;-32
2022/05/12 13:02:59;;;;;;;4.90;1.27;;;21.20;41.30;;;;;;5092985;28;20031;-29
2022/05/12 13:05:25;;;;;;;1.80;0.90;;;21.10;40.90;;;;;;5092716;28;20494;-31
2022/05/12 13:08:04;;;;;;;3.45;0.88;;;21.10;40.90;;;;;;5092723;28;20024;-33
2022/05/12 13:10:40;;;;;;;3.88;1.10;;;21.00;41.00;;;;;;5092622;28;20032;-31
2022/05/12 13:13:06;;;;;;;2.40;0.93;;;21.00;41.00;;;;;;5092574;28;20016;-30
2022/05/12 13:15:35;;;;;;;2.88;1.15;;;21.10;41.30;;;;;;5092709;28;20024;-35
2022/05/12 13:18:04;;;;;;;3.78;1.15;;;21.10;41.10;;;;;;5092683;28;20020;-32
2022/05/12 13:20:33;;;;;;;1.80;1.02;;;21.10;41.30;;;;;;5092832;28;20048;-32
2022/05/12 13:23:30;;;;;;;3.17;0.95;;;21.20;40.30;;;;;;5092956;28;20020;-30
2022/05/12 13:25:58;;;;;;;1.67;0.88;;;21.30;40.20;;;;;;5091977;28;20415;-31
2022/05/12 13:28:27;;;;;;;2.20;1.00;;;21.40;40.10;;;;;;5091505;28;20046;-32